Bedford, New York
Current Conditions -  °F | °C
As of 3:56 PM on Wednesday 17 Dec 2014 (Local Time) from KHPN Reporting Station
Light Rain Light Rain  
Wind Chill: 41°   Ceiling: 3400
Heat Index: 46°   Visibility: 10mi
Dew Point: 39°   Wind: 10mph
Humidity: 76%   Direction: 290°WNW
Pressure: 29.8"   Gusts: 20mph
Location:  41.2°N, 73.64°W
Report Text: KHPN 172056Z 29009G17KT 10SM -RA BKN034 08/04 A2980 RMK AO2 RAB37 SLP097 P0000 60000 T00780039 53009
Loading
Personal Weather Stations






























Interactive Weather Map New forecast layout! Learn more

10-Day Weather Forecast

Advertisements
Track Severe Weather on mobile